Time;durP1;ratioP1;P1;durP2;ratioP2;P2;SDS_P1;SDS_P2;PMS_P1;PMS_P2;Temp;Humidity;BMP_temperature;BMP_pressure;BME280_temperature;BME280_humidity;BME280_pressure;Samples;Min_cycle;Max_cycle;Signal;HPM_P1;HPM_P2
2023/07/09 00:00:50;;;;;;;6.50;3.67;;;26.90;81.10;;;;;;5073183;28;20085;-70
2023/07/09 00:03:17;;;;;;;4.78;3.13;;;26.90;81.20;;;;;;5073077;28;20036;-70
2023/07/09 00:05:45;;;;;;;4.00;3.20;;;26.90;81.40;;;;;;5072846;28;20020;-70
2023/07/09 00:08:31;;;;;;;5.05;3.42;;;26.90;81.40;;;;;;5072963;28;20035;-70
2023/07/09 00:10:57;;;;;;;6.38;3.60;;;26.90;81.60;;;;;;5088709;28;20031;-70
2023/07/09 00:13:25;;;;;;;5.30;3.38;;;26.90;82.10;;;;;;5072851;28;20115;-71
2023/07/09 00:15:51;;;;;;;6.40;3.90;;;26.90;82.10;;;;;;5073010;28;20040;-70
2023/07/09 00:18:17;;;;;;;4.03;3.58;;;26.90;82.40;;;;;;5072913;28;20083;-70
2023/07/09 00:20:43;;;;;;;6.50;3.88;;;26.90;83.00;;;;;;5072938;28;20482;-71
2023/07/09 00:23:13;;;;;;;3.85;3.30;;;26.90;83.10;;;;;;5076902;28;20020;-70
2023/07/09 00:25:41;;;;;;;6.50;3.88;;;26.80;82.90;;;;;;5077067;28;20024;-70
2023/07/09 00:28:12;;;;;;;6.32;3.83;;;26.80;83.40;;;;;;5077017;28;20028;-71
2023/07/09 00:30:37;;;;;;;5.85;3.72;;;26.80;83.60;;;;;;5076920;28;20024;-70
2023/07/09 00:33:04;;;;;;;5.47;3.75;;;26.80;83.60;;;;;;5076566;28;20496;-70
2023/07/09 00:35:30;;;;;;;6.65;4.07;;;26.80;84.00;;;;;;5076908;28;20024;-70
2023/07/09 00:38:00;;;;;;;4.68;3.60;;;26.80;84.20;;;;;;5075826;28;20461;-70
2023/07/09 00:40:26;;;;;;;5.05;3.90;;;26.80;84.50;;;;;;5076665;28;20524;-70
2023/07/09 00:42:54;;;;;;;5.45;3.55;;;26.80;84.60;;;;;;5076768;28;20036;-70
2023/07/09 00:45:22;;;;;;;9.43;4.30;;;26.70;84.50;;;;;;5076693;28;20024;-70
2023/07/09 00:48:00;;;;;;;4.85;3.58;;;26.70;84.30;;;;;;5076636;28;20016;-71
2023/07/09 00:50:36;;;;;;;10.07;3.80;;;26.70;84.10;;;;;;5076541;28;20024;-70
2023/07/09 00:53:17;;;;;;;8.48;4.30;;;26.70;84.10;;;;;;5076334;28;20055;-72
2023/07/09 00:55:45;;;;;;;7.32;3.72;;;26.70;84.60;;;;;;5076505;28;20045;-71
2023/07/09 00:58:15;;;;;;;7.47;4.18;;;26.60;84.10;;;;;;5076471;28;20020;-70
2023/07/09 01:00:52;;;;;;;4.88;3.25;;;26.60;83.10;;;;;;5076315;28;20150;-70
2023/07/09 01:03:37;;;;;;;5.90;3.90;;;26.60;83.90;;;;;;5076168;28;20021;-70
2023/07/09 01:06:05;;;;;;;5.18;3.67;;;26.60;83.20;;;;;;5076301;28;20028;-71
2023/07/09 01:08:34;;;;;;;2.92;2.45;;;26.60;82.10;;;;;;5076371;28;20369;-71
2023/07/09 01:11:00;;;;;;;2.50;2.20;;;26.60;81.00;;;;;;5076220;28;20017;-71
2023/07/09 01:13:32;;;;;;;3.67;2.63;;;26.50;80.40;;;;;;5076150;28;20031;-71
2023/07/09 01:15:58;;;;;;;3.08;2.58;;;26.50;80.10;;;;;;5076031;28;20039;-71
2023/07/09 01:18:24;;;;;;;3.95;2.95;;;26.50;79.90;;;;;;5075878;28;20021;-71
2023/07/09 01:20:52;;;;;;;5.07;4.05;;;26.50;79.90;;;;;;5074464;28;20465;-70
2023/07/09 01:23:18;;;;;;;3.63;2.00;;;26.50;79.60;;;;;;5075924;28;20037;-71
2023/07/09 01:25:52;;;;;;;5.00;3.22;;;26.50;79.30;;;;;;5075962;28;20082;-71
2023/07/09 01:28:18;;;;;;;5.30;2.60;;;26.40;79.40;;;;;;5075839;28;20077;-70
2023/07/09 01:30:44;;;;;;;4.68;3.63;;;26.40;79.50;;;;;;5075757;28;20449;-71
2023/07/09 01:33:10;;;;;;;2.97;1.98;;;26.40;79.50;;;;;;5074611;28;20104;-70
2023/07/09 01:35:40;;;;;;;3.25;2.60;;;26.40;79.10;;;;;;5075735;28;20107;-71
2023/07/09 01:38:07;;;;;;;5.95;3.53;;;26.40;79.40;;;;;;5075910;28;20024;-71
2023/07/09 01:40:32;;;;;;;2.33;1.85;;;26.40;79.40;;;;;;5075548;28;20525;-70
2023/07/09 01:42:59;;;;;;;3.33;2.60;;;26.40;79.10;;;;;;5075702;28;20107;-70
2023/07/09 01:45:26;;;;;;;2.30;2.10;;;26.30;79.20;;;;;;5075216;28;20024;-71
2023/07/09 01:47:53;;;;;;;4.40;2.17;;;26.40;79.10;;;;;;5075630;28;20029;-71
2023/07/09 01:50:19;;;;;;;4.53;3.22;;;26.40;79.20;;;;;;5075461;28;20095;-71
2023/07/09 01:52:46;;;;;;;3.78;3.17;;;26.40;79.60;;;;;;5075365;28;20116;-71
2023/07/09 01:55:16;;;;;;;2.50;2.25;;;26.40;79.50;;;;;;5075215;28;20517;-71
2023/07/09 01:57:42;;;;;;;4.30;3.45;;;26.30;79.30;;;;;;5075614;28;20702;-71
2023/07/09 02:00:11;;;;;;;3.53;3.13;;;26.30;80.00;;;;;;5075116;28;20099;-70
2023/07/09 02:02:43;;;;;;;3.25;2.42;;;26.30;80.20;;;;;;5075265;28;20023;-71
2023/07/09 02:05:10;;;;;;;5.63;2.97;;;26.30;79.70;;;;;;5075190;28;20016;-71
2023/07/09 02:07:36;;;;;;;4.22;2.58;;;26.30;79.60;;;;;;5075284;28;20016;-70
2023/07/09 02:10:02;;;;;;;7.28;3.92;;;26.30;79.90;;;;;;5075250;28;20055;-70
2023/07/09 02:12:28;;;;;;;6.75;4.68;;;26.30;80.60;;;;;;5075045;28;20474;-71
2023/07/09 02:14:53;;;;;;;8.25;4.80;;;26.30;82.20;;;;;;5090178;28;20076;-71
2023/07/09 02:17:19;;;;;;;8.10;5.00;;;26.30;83.60;;;;;;5074970;28;20028;-70
2023/07/09 02:19:45;;;;;;;6.25;4.32;;;26.30;84.70;;;;;;5075204;28;20017;-72
2023/07/09 02:22:11;;;;;;;6.40;4.88;;;26.30;85.50;;;;;;5075050;28;20025;-70
2023/07/09 02:24:37;;;;;;;6.28;4.18;;;26.30;85.60;;;;;;5074821;28;20029;-70
2023/07/09 02:27:05;;;;;;;7.65;4.70;;;26.30;85.90;;;;;;5074831;28;20025;-70
2023/07/09 02:29:32;;;;;;;6.10;4.40;;;26.30;86.30;;;;;;5074644;28;20566;-71
2023/07/09 02:32:00;;;;;;;6.55;4.53;;;26.30;86.80;;;;;;5074607;28;20108;-70
2023/07/09 02:34:26;;;;;;;5.05;3.92;;;26.20;85.90;;;;;;5074605;28;20543;-71
2023/07/09 02:36:57;;;;;;;6.95;4.72;;;26.30;86.80;;;;;;5074568;28;20025;-70
2023/07/09 02:39:23;;;;;;;4.40;3.95;;;26.20;87.30;;;;;;5074683;28;20024;-71
2023/07/09 02:41:49;;;;;;;5.82;4.50;;;26.20;87.50;;;;;;5074394;28;20028;-71
2023/07/09 02:44:16;;;;;;;7.63;5.20;;;26.20;87.20;;;;;;5073962;28;20424;-71
2023/07/09 02:46:42;;;;;;;7.03;5.60;;;26.20;87.20;;;;;;5074586;28;20070;-71
2023/07/09 02:49:10;;;;;;;7.75;5.63;;;26.20;87.50;;;;;;5074443;28;20024;-71
2023/07/09 02:51:36;;;;;;;8.20;5.43;;;26.10;87.30;;;;;;5074041;28;20025;-71
2023/07/09 02:54:03;;;;;;;8.23;5.97;;;26.10;87.60;;;;;;5074087;28;20028;-71
2023/07/09 02:56:29;;;;;;;5.65;5.07;;;26.10;89.10;;;;;;5074302;28;20024;-71
2023/07/09 02:58:55;;;;;;;7.03;5.30;;;26.10;88.80;;;;;;5073988;28;20432;-70
2023/07/09 03:01:24;;;;;;;7.72;5.95;;;26.10;88.20;;;;;;5074184;28;20529;-71
2023/07/09 03:03:59;;;;;;;7.53;5.88;;;26.10;88.90;;;;;;5074007;28;20017;-71
2023/07/09 03:06:26;;;;;;;6.78;5.72;;;26.10;88.80;;;;;;5074063;28;20077;-70
2023/07/09 03:08:52;;;;;;;12.10;6.78;;;26.00;88.80;;;;;;5073936;28;20085;-70
2023/07/09 03:11:17;;;;;;;6.72;6.00;;;26.00;89.30;;;;;;5073988;28;20477;-71
2023/07/09 03:13:44;;;;;;;7.63;6.82;;;26.00;89.70;;;;;;5073352;28;20040;-71
2023/07/09 03:16:09;;;;;;;11.35;8.02;;;26.00;90.00;;;;;;5074031;28;20020;-70
2023/07/09 03:18:35;;;;;;;9.23;7.93;;;26.00;89.30;;;;;;5073701;28;20029;-70
2023/07/09 03:21:01;;;;;;;12.60;11.38;;;26.00;89.30;;;;;;5073702;28;20034;-71
2023/07/09 03:23:27;;;;;;;12.98;11.70;;;26.00;89.60;;;;;;5073679;28;20091;-72
2023/07/09 03:25:52;;;;;;;13.25;11.93;;;26.00;90.50;;;;;;5073875;28;20036;-70
2023/07/09 03:28:18;;;;;;;12.98;11.50;;;26.00;90.60;;;;;;5073435;28;20021;-70
2023/07/09 03:30:46;;;;;;;14.85;12.43;;;26.00;89.70;;;;;;5073667;28;20066;-70
2023/07/09 03:33:13;;;;;;;19.05;16.23;;;26.00;90.30;;;;;;5073372;28;20104;-71
2023/07/09 03:35:39;;;;;;;17.77;16.08;;;26.00;90.70;;;;;;5073685;28;20107;-71
2023/07/09 03:38:05;;;;;;;17.77;15.98;;;25.90;90.40;;;;;;5073441;28;20110;-70
2023/07/09 03:40:31;;;;;;;20.17;18.05;;;25.90;91.00;;;;;;5074146;28;20386;-70
2023/07/09 03:42:57;;;;;;;21.05;18.85;;;25.90;91.20;;;;;;5084865;28;20484;-71
2023/07/09 03:45:23;;;;;;;20.35;17.50;;;25.90;91.20;;;;;;5077684;28;20036;-71
2023/07/09 03:47:49;;;;;;;19.17;17.17;;;25.80;91.00;;;;;;5070604;28;20028;-71
2023/07/09 03:50:14;;;;;;;22.15;17.73;;;25.90;91.40;;;;;;5072492;28;20366;-71
2023/07/09 03:52:40;;;;;;;19.52;17.55;;;25.80;91.70;;;;;;5073133;28;20063;-71
2023/07/09 03:55:06;;;;;;;19.98;17.88;;;25.80;91.90;;;;;;5073239;28;20482;-70
2023/07/09 03:57:33;;;;;;;20.10;18.20;;;25.80;91.50;;;;;;5072437;28;20029;-71
2023/07/09 03:59:58;;;;;;;21.75;18.10;;;25.80;91.70;;;;;;5073218;28;20025;-71
2023/07/09 04:02:24;;;;;;;18.83;16.83;;;25.80;91.80;;;;;;5073154;28;20405;-70
2023/07/09 04:04:49;;;;;;;19.50;17.60;;;25.80;91.70;;;;;;5072973;28;20063;-70
2023/07/09 04:07:16;;;;;;;19.75;17.65;;;25.80;91.80;;;;;;5073215;28;20029;-71
2023/07/09 04:09:42;;;;;;;19.65;17.63;;;25.80;92.00;;;;;;5073017;28;20033;-70
2023/07/09 04:12:09;;;;;;;20.95;18.02;;;25.70;92.00;;;;;;5072997;28;20056;-70
2023/07/09 04:14:35;;;;;;;19.75;17.83;;;25.70;91.90;;;;;;5072800;28;20033;-71
2023/07/09 04:17:00;;;;;;;20.73;18.60;;;25.70;92.10;;;;;;5073196;28;20074;-70
2023/07/09 04:19:27;;;;;;;20.45;17.83;;;25.70;92.10;;;;;;5073040;28;20428;-71
2023/07/09 04:21:52;;;;;;;20.95;18.83;;;25.70;92.30;;;;;;5072913;28;20489;-71
2023/07/09 04:24:19;;;;;;;20.40;18.30;;;25.70;92.40;;;;;;5072974;28;20029;-70
2023/07/09 04:26:45;;;;;;;21.35;19.15;;;25.70;92.40;;;;;;5072769;28;20053;-70
2023/07/09 04:29:10;;;;;;;20.42;18.23;;;25.70;92.50;;;;;;5073004;28;20024;-70
2023/07/09 04:31:37;;;;;;;21.02;19.00;;;25.60;92.50;;;;;;5072988;28;20043;-70
2023/07/09 04:34:03;;;;;;;22.30;19.38;;;25.60;92.40;;;;;;5072854;28;20107;-71
2023/07/09 04:36:29;;;;;;;23.77;19.15;;;25.60;92.50;;;;;;5072990;28;20025;-71
2023/07/09 04:38:54;;;;;;;20.48;18.38;;;25.60;92.50;;;;;;5072745;28;20024;-71
2023/07/09 04:41:20;;;;;;;19.83;17.80;;;25.60;92.50;;;;;;5072766;28;20074;-70
2023/07/09 04:43:46;;;;;;;20.02;18.00;;;25.60;92.50;;;;;;5072878;28;20377;-71
2023/07/09 04:46:11;;;;;;;21.50;19.25;;;25.60;92.30;;;;;;5072714;28;20385;-71
2023/07/09 04:48:38;;;;;;;22.40;20.20;;;25.60;92.60;;;;;;5072697;28;20114;-70
2023/07/09 04:51:04;;;;;;;22.45;20.00;;;25.60;92.60;;;;;;5072575;28;20039;-71
2023/07/09 04:53:30;;;;;;;23.55;21.17;;;25.60;92.90;;;;;;5072623;28;20075;-70
2023/07/09 04:55:56;;;;;;;24.70;22.05;;;25.60;92.80;;;;;;5072440;28;20109;-70
2023/07/09 04:58:22;;;;;;;26.13;23.40;;;25.50;92.90;;;;;;5072728;28;20016;-70
2023/07/09 05:00:50;;;;;;;26.20;23.38;;;25.60;93.10;;;;;;5077853;28;20024;-71
2023/07/09 05:03:17;;;;;;;27.92;25.15;;;25.60;93.10;;;;;;5092814;28;20065;-70
2023/07/09 05:05:45;;;;;;;26.92;24.33;;;25.50;93.00;;;;;;5092482;28;20030;-71
2023/07/09 05:08:12;;;;;;;27.92;25.10;;;25.60;93.10;;;;;;5093601;28;20055;-70
2023/07/09 05:10:42;;;;;;;28.10;25.25;;;25.50;93.00;;;;;;5096127;28;20451;-71
2023/07/09 05:13:08;;;;;;;30.60;27.27;;;25.60;92.80;;;;;;5096645;28;20048;-71
2023/07/09 05:15:33;;;;;;;29.33;26.35;;;25.50;92.70;;;;;;5096289;28;20068;-70
2023/07/09 05:17:59;;;;;;;29.77;26.80;;;25.50;93.00;;;;;;5096450;28;20019;-71
2023/07/09 05:20:25;;;;;;;31.63;28.52;;;25.50;93.00;;;;;;5096207;28;20516;-71
2023/07/09 05:22:50;;;;;;;30.70;27.67;;;25.50;93.10;;;;;;5096122;28;20032;-70
2023/07/09 05:25:16;;;;;;;30.75;27.67;;;25.50;93.10;;;;;;5096211;28;20031;-70
2023/07/09 05:27:42;;;;;;;31.80;28.65;;;25.50;93.10;;;;;;5096256;28;20093;-70
2023/07/09 05:30:08;;;;;;;33.60;30.13;;;25.50;93.20;;;;;;5096137;28;20035;-71
2023/07/09 05:32:36;;;;;;;33.15;30.15;;;25.50;93.20;;;;;;5096321;28;20042;-71
2023/07/09 05:35:01;;;;;;;32.95;29.52;;;25.50;93.20;;;;;;5095988;28;20064;-70
2023/07/09 05:37:27;;;;;;;33.08;29.60;;;25.50;93.10;;;;;;5095829;28;20047;-70
2023/07/09 05:39:52;;;;;;;32.10;28.90;;;25.50;93.00;;;;;;5096037;28;20027;-70
2023/07/09 05:42:18;;;;;;;30.00;26.92;;;25.50;93.10;;;;;;5095958;28;20031;-70
2023/07/09 05:44:43;;;;;;;34.45;30.67;;;25.50;93.00;;;;;;5095603;28;20028;-70
2023/07/09 05:47:09;;;;;;;33.03;29.63;;;25.50;93.00;;;;;;5095877;28;20050;-70
2023/07/09 05:49:35;;;;;;;28.20;25.35;;;25.50;92.90;;;;;;5095885;28;20473;-70
2023/07/09 05:52:01;;;;;;;28.35;25.40;;;25.50;92.70;;;;;;5095110;28;20043;-70
2023/07/09 05:54:26;;;;;;;26.17;23.40;;;25.60;92.90;;;;;;5095602;28;20036;-70
2023/07/09 05:56:52;;;;;;;28.67;25.70;;;25.50;92.90;;;;;;5095574;28;20020;-71
2023/07/09 05:59:17;;;;;;;27.02;24.10;;;25.60;93.00;;;;;;5095739;28;20028;-71
2023/07/09 06:01:43;;;;;;;22.63;20.42;;;25.60;92.50;;;;;;5095347;28;20182;-71
2023/07/09 06:04:08;;;;;;;22.98;20.77;;;25.60;92.20;;;;;;5095628;28;20020;-70
2023/07/09 06:06:34;;;;;;;20.02;17.92;;;25.60;92.10;;;;;;5095274;28;20533;-70
2023/07/09 06:08:59;;;;;;;19.75;17.85;;;25.60;91.60;;;;;;5095476;28;20498;-70
2023/07/09 06:11:25;;;;;;;23.63;21.23;;;25.60;91.30;;;;;;5095341;28;20077;-71
2023/07/09 06:13:51;;;;;;;20.23;18.20;;;25.60;91.50;;;;;;5095120;28;20020;-70
2023/07/09 06:16:17;;;;;;;21.20;14.55;;;25.70;91.10;;;;;;5095433;28;20378;-70
2023/07/09 06:18:43;;;;;;;12.82;11.50;;;25.60;91.00;;;;;;5094889;28;20178;-70
2023/07/09 06:21:11;;;;;;;13.55;12.20;;;25.70;90.70;;;;;;5094672;28;20481;-71
2023/07/09 06:23:37;;;;;;;19.17;17.27;;;25.70;90.50;;;;;;5095158;28;20162;-71
2023/07/09 06:26:02;;;;;;;18.88;15.00;;;25.70;90.90;;;;;;5095229;28;20098;-70
2023/07/09 06:28:31;;;;;;;16.73;14.23;;;25.70;91.00;;;;;;5094975;28;20022;-70
2023/07/09 06:30:57;;;;;;;21.08;18.95;;;25.70;90.50;;;;;;5095116;28;20076;-70
2023/07/09 06:33:23;;;;;;;18.17;16.25;;;25.80;90.90;;;;;;5094836;28;20024;-70
2023/07/09 06:35:55;;;;;;;17.67;15.80;;;25.80;90.70;;;;;;5094756;28;20472;-70
2023/07/09 06:38:21;;;;;;;21.98;19.70;;;25.80;90.70;;;;;;5094872;28;20121;-70
2023/07/09 06:40:46;;;;;;;19.92;16.92;;;25.80;91.00;;;;;;5093335;28;20397;-70
2023/07/09 06:43:12;;;;;;;18.30;15.75;;;25.80;90.60;;;;;;5094743;28;20012;-70
2023/07/09 06:45:38;;;;;;;13.57;12.18;;;25.80;90.50;;;;;;5094591;28;20423;-70
2023/07/09 06:48:04;;;;;;;14.13;11.23;;;25.80;90.20;;;;;;5094614;28;20028;-70
2023/07/09 06:50:33;;;;;;;13.10;11.85;;;25.80;89.60;;;;;;5094477;28;20506;-70
2023/07/09 06:52:58;;;;;;;11.80;10.52;;;25.80;89.40;;;;;;5094341;28;20035;-71
2023/07/09 06:55:25;;;;;;;9.85;8.85;;;25.90;89.50;;;;;;5094416;28;20044;-71
2023/07/09 06:57:50;;;;;;;19.73;17.73;;;25.90;88.70;;;;;;5094238;28;20022;-71
2023/07/09 07:00:16;;;;;;;13.85;11.10;;;25.90;90.50;;;;;;5094570;28;20376;-71
2023/07/09 07:02:42;;;;;;;12.05;9.95;;;25.90;89.20;;;;;;5094290;28;20490;-71
2023/07/09 07:05:07;;;;;;;10.45;9.35;;;26.00;89.00;;;;;;5094121;28;20473;-71
2023/07/09 07:07:33;;;;;;;10.18;8.45;;;26.00;88.90;;;;;;5094291;28;20466;-71
2023/07/09 07:09:58;;;;;;;12.45;10.98;;;25.90;88.10;;;;;;5094288;28;20055;-71
2023/07/09 07:12:29;;;;;;;15.75;12.45;;;26.00;90.00;;;;;;5094085;28;20031;-71
2023/07/09 07:14:55;;;;;;;16.02;13.13;;;26.00;89.70;;;;;;5094058;28;20392;-71
2023/07/09 07:17:22;;;;;;;18.05;15.45;;;26.00;90.00;;;;;;5094092;28;20017;-71
2023/07/09 07:19:49;;;;;;;13.23;10.23;;;26.00;90.30;;;;;;5093875;28;20031;-71
2023/07/09 07:22:14;;;;;;;8.57;7.20;;;26.10;89.00;;;;;;5094039;28;20032;-71
2023/07/09 07:24:40;;;;;;;8.05;6.60;;;26.10;88.00;;;;;;5093556;28;20050;-70
2023/07/09 07:27:06;;;;;;;17.55;13.95;;;26.10;88.20;;;;;;5094105;28;20067;-71
2023/07/09 07:29:31;;;;;;;9.07;7.28;;;26.20;90.20;;;;;;5093991;28;20024;-71
2023/07/09 07:31:57;;;;;;;7.70;6.90;;;26.20;88.50;;;;;;5092975;28;20036;-71
2023/07/09 07:34:22;;;;;;;8.98;7.78;;;26.20;87.90;;;;;;5093437;28;20071;-71
2023/07/09 07:36:49;;;;;;;9.85;6.50;;;26.20;88.30;;;;;;5093712;28;20074;-71
2023/07/09 07:39:15;;;;;;;9.05;6.15;;;26.20;87.40;;;;;;5093912;28;20027;-71
2023/07/09 07:41:41;;;;;;;6.13;4.65;;;26.20;87.10;;;;;;5093995;28;20373;-71
2023/07/09 07:44:07;;;;;;;7.80;6.40;;;26.20;86.70;;;;;;5093542;28;20024;-71
2023/07/09 07:46:34;;;;;;;7.28;5.85;;;26.30;88.90;;;;;;5093769;28;20016;-71
2023/07/09 07:48:59;;;;;;;7.65;6.53;;;26.30;87.60;;;;;;5093197;28;20019;-71
2023/07/09 07:51:25;;;;;;;12.98;10.70;;;26.30;88.30;;;;;;5093440;28;20028;-71
2023/07/09 07:53:52;;;;;;;9.88;8.20;;;26.40;90.30;;;;;;5093218;28;20028;-71
2023/07/09 07:56:18;;;;;;;11.75;8.80;;;26.40;90.10;;;;;;5093571;28;20051;-71
2023/07/09 07:58:44;;;;;;;7.25;5.40;;;26.50;90.10;;;;;;5093342;28;20067;-72
2023/07/09 08:01:09;;;;;;;6.68;5.55;;;26.50;87.70;;;;;;5093596;28;20466;-72
2023/07/09 08:03:35;;;;;;;4.72;3.70;;;26.50;88.50;;;;;;5093107;28;20024;-72
2023/07/09 08:06:01;;;;;;;9.90;6.95;;;26.50;85.60;;;;;;5093503;28;20021;-72
2023/07/09 08:08:26;;;;;;;6.97;5.20;;;26.60;88.20;;;;;;5092068;28;20145;-72
2023/07/09 08:11:04;;;;;;;6.43;4.50;;;26.60;87.50;;;;;;5093303;28;20028;-72
2023/07/09 08:13:32;;;;;;;9.35;5.65;;;26.70;84.80;;;;;;5093164;28;21890;-71
2023/07/09 08:15:58;;;;;;;7.05;5.15;;;26.70;88.80;;;;;;5092022;28;20024;-71
2023/07/09 08:18:24;;;;;;;4.18;3.78;;;26.70;88.30;;;;;;5093088;28;20028;-72
2023/07/09 08:20:49;;;;;;;4.85;4.18;;;26.70;85.80;;;;;;5092768;28;20024;-72
2023/07/09 08:23:15;;;;;;;8.00;6.22;;;26.70;85.70;;;;;;5093201;28;20028;-72
2023/07/09 08:25:40;;;;;;;6.50;4.82;;;26.80;90.10;;;;;;5093127;28;20031;-72
2023/07/09 08:28:06;;;;;;;5.82;4.47;;;26.90;89.20;;;;;;5093335;28;20027;-72
2023/07/09 08:30:32;;;;;;;8.82;5.13;;;26.90;87.30;;;;;;5093189;28;20024;-72
2023/07/09 08:32:57;;;;;;;4.28;3.78;;;26.90;88.40;;;;;;5092764;28;20150;-71
2023/07/09 08:35:23;;;;;;;7.50;5.72;;;26.90;87.10;;;;;;5093033;28;20036;-71
2023/07/09 08:37:48;;;;;;;5.63;3.58;;;27.00;90.10;;;;;;5092936;28;20016;-72
2023/07/09 08:40:16;;;;;;;6.82;4.47;;;27.00;88.40;;;;;;5093090;28;20388;-71
2023/07/09 08:42:45;;;;;;;6.20;4.13;;;27.00;87.70;;;;;;5094661;28;20043;-72
2023/07/09 08:45:26;;;;;;;4.65;3.70;;;27.00;88.80;;;;;;5097096;28;20047;-72
2023/07/09 08:48:00;;;;;;;7.47;4.32;;;27.00;88.10;;;;;;5096588;28;20024;-71
2023/07/09 08:50:38;;;;;;;6.90;2.90;;;27.00;89.40;;;;;;5096929;28;20059;-72
2023/07/09 08:53:06;;;;;;;4.78;2.90;;;27.00;88.00;;;;;;5096699;28;20035;-71
2023/07/09 08:55:40;;;;;;;7.78;3.20;;;27.00;86.30;;;;;;5096753;28;20070;-71
2023/07/09 08:58:21;;;;;;;4.05;3.65;;;27.10;86.70;;;;;;5096690;28;20043;-71
2023/07/09 09:00:59;;;;;;;5.53;3.58;;;27.10;85.10;;;;;;5096177;28;20043;-71
2023/07/09 09:03:29;;;;;;;3.55;3.00;;;27.00;84.70;;;;;;5096848;28;20477;-71
2023/07/09 09:05:55;;;;;;;6.22;2.90;;;27.10;85.00;;;;;;5096637;28;20047;-71
2023/07/09 09:08:39;;;;;;;4.22;2.97;;;27.20;85.30;;;;;;5096718;28;20081;-71
2023/07/09 09:11:34;;;;;;;4.13;2.90;;;27.10;86.70;;;;;;5096343;28;20035;-71
2023/07/09 09:14:06;;;;;;;3.80;3.00;;;27.10;86.00;;;;;;5096376;28;20040;-72
2023/07/09 09:16:38;;;;;;;3.53;3.20;;;27.10;83.70;;;;;;5094996;28;20012;-71
2023/07/09 09:19:09;;;;;;;;;;;27.10;82.60;;;;;;5096899;28;20380;-71
2023/07/09 09:21:37;;;;;;;6.57;3.10;;;27.20;86.70;;;;;;5096294;28;19908;-72
2023/07/09 09:24:49;;;;;;;3.97;2.85;;;27.30;87.10;;;;;;5096194;28;20020;-71
2023/07/09 09:27:14;;;;;;;3.17;2.80;;;27.20;81.90;;;;;;5074760;28;20040;-71
2023/07/09 09:29:40;;;;;;;3.72;3.05;;;27.20;85.70;;;;;;5094620;28;20630;-71
2023/07/09 09:32:24;;;;;;;3.65;3.08;;;27.30;83.90;;;;;;5096058;28;20031;-71
2023/07/09 09:34:50;;;;;;;3.47;2.95;;;27.30;82.50;;;;;;5095846;28;20028;-71
2023/07/09 09:37:28;;;;;;;5.20;3.03;;;27.30;84.80;;;;;;5095974;28;20031;-71
2023/07/09 09:39:54;;;;;;;2.97;2.67;;;27.30;85.60;;;;;;5096023;28;20473;-71
2023/07/09 09:42:20;;;;;;;4.65;3.25;;;27.30;82.80;;;;;;5096157;28;20107;-71
2023/07/09 09:44:46;;;;;;;5.40;3.17;;;27.40;84.70;;;;;;5095731;28;20198;-71
2023/07/09 09:47:12;;;;;;;3.08;2.38;;;27.40;85.20;;;;;;5094573;28;20452;-71
2023/07/09 09:49:43;;;;;;;3.75;2.80;;;27.40;82.60;;;;;;5096076;28;20020;-71
2023/07/09 09:52:19;;;;;;;3.55;3.03;;;27.40;82.90;;;;;;5095695;28;20123;-71
2023/07/09 09:55:02;;;;;;;6.93;3.10;;;27.40;85.80;;;;;;5094653;28;20036;-71
2023/07/09 09:57:28;;;;;;;5.15;2.97;;;27.40;86.50;;;;;;5095711;28;20020;-72
2023/07/09 09:59:58;;;;;;;4.20;3.28;;;27.40;85.20;;;;;;5095367;28;20384;-71
2023/07/09 10:02:25;;;;;;;3.20;2.70;;;27.40;83.60;;;;;;5095680;28;20095;-71
2023/07/09 10:04:51;;;;;;;2.90;2.63;;;27.40;83.10;;;;;;5095619;28;20024;-71
2023/07/09 10:07:42;;;;;;;4.20;3.20;;;27.40;83.60;;;;;;5095398;28;20076;-71
2023/07/09 10:10:20;;;;;;;3.22;2.60;;;27.50;82.70;;;;;;5095394;28;20109;-72
2023/07/09 10:12:55;;;;;;;3.35;2.72;;;27.50;81.70;;;;;;5094916;28;20031;-71
2023/07/09 10:16:01;;;;;;;5.25;3.10;;;27.50;85.90;;;;;;5095292;28;20032;-72
2023/07/09 10:18:32;;;;;;;4.47;2.85;;;27.50;81.70;;;;;;5095333;28;20031;-71
2023/07/09 10:21:18;;;;;;;3.28;2.67;;;27.50;82.50;;;;;;5093726;28;20128;-71
2023/07/09 10:24:08;;;;;;;4.95;2.90;;;27.50;81.30;;;;;;5095204;28;20109;-71
2023/07/09 10:26:53;;;;;;;4.93;2.30;;;27.60;82.50;;;;;;5093888;28;20028;-71
2023/07/09 10:29:41;;;;;;;4.43;3.08;;;27.60;83.10;;;;;;5094964;28;20022;-71
2023/07/09 10:32:41;;;;;;;4.28;2.97;;;27.50;81.10;;;;;;5095027;28;20016;-71
2023/07/09 10:35:24;;;;;;;3.38;2.45;;;27.50;86.40;;;;;;5094931;28;20032;-71
2023/07/09 10:38:04;;;;;;;3.13;2.28;;;27.50;83.10;;;;;;5094924;28;20016;-71
2023/07/09 10:40:37;;;;;;;3.95;2.45;;;27.60;84.10;;;;;;5094926;28;20032;-71
2023/07/09 10:43:05;;;;;;;2.80;2.40;;;27.60;84.40;;;;;;5094679;28;20024;-71
2023/07/09 10:45:39;;;;;;;3.90;2.55;;;27.50;82.00;;;;;;5094831;28;20035;-71
2023/07/09 10:48:13;;;;;;;4.20;2.40;;;27.60;81.90;;;;;;5094430;28;20032;-71
2023/07/09 10:50:41;;;;;;;2.88;2.42;;;27.60;84.60;;;;;;5094624;28;20023;-71
2023/07/09 10:53:33;;;;;;;2.72;2.50;;;27.60;83.00;;;;;;5094318;28;20040;-72
2023/07/09 10:56:09;;;;;;;6.18;2.25;;;27.60;81.90;;;;;;5093201;28;20043;-71
2023/07/09 10:58:49;;;;;;;3.80;2.78;;;27.60;82.40;;;;;;5094228;28;20028;-72
2023/07/09 11:01:15;;;;;;;6.47;2.80;;;27.60;80.90;;;;;;5094441;28;20111;-71
2023/07/09 11:03:55;;;;;;;2.40;2.20;;;27.60;86.50;;;;;;5094405;28;20027;-71
2023/07/09 11:06:33;;;;;;;2.20;2.00;;;27.60;81.80;;;;;;5094277;28;20062;-71
2023/07/09 11:09:00;;;;;;;4.18;2.30;;;27.60;80.80;;;;;;5094208;28;20031;-72
2023/07/09 11:11:39;;;;;;;2.35;2.03;;;27.60;81.30;;;;;;5093969;28;20095;-71
2023/07/09 11:14:26;;;;;;;3.70;2.70;;;27.60;82.50;;;;;;5094093;28;20024;-71
2023/07/09 11:16:54;;;;;;;4.93;2.63;;;27.60;82.90;;;;;;5094186;28;20039;-72
2023/07/09 11:19:21;;;;;;;3.65;2.55;;;27.70;84.90;;;;;;5094044;28;20065;-71
2023/07/09 11:22:05;;;;;;;4.82;2.97;;;27.70;82.00;;;;;;5094231;28;20460;-71
2023/07/09 11:24:46;;;;;;;2.67;2.13;;;27.70;83.50;;;;;;5094106;28;20045;-71
2023/07/09 11:27:27;;;;;;;3.90;2.88;;;27.70;82.20;;;;;;5093729;28;20024;-71
2023/07/09 11:30:03;;;;;;;3.83;2.28;;;27.70;82.20;;;;;;5093959;28;20028;-71
2023/07/09 11:32:29;;;;;;;2.47;2.08;;;27.70;82.60;;;;;;5093997;28;20081;-71
2023/07/09 11:35:06;;;;;;;3.15;2.10;;;27.70;80.60;;;;;;5093567;28;20408;-71
2023/07/09 11:37:32;;;;;;;2.50;2.10;;;27.70;81.90;;;;;;5093705;28;20085;-71
2023/07/09 11:40:11;;;;;;;6.45;2.90;;;27.60;80.90;;;;;;5093513;28;20673;-71
2023/07/09 11:42:51;;;;;;;3.60;2.45;;;27.70;81.80;;;;;;5093622;28;20020;-71
2023/07/09 11:45:30;;;;;;;3.67;2.33;;;27.70;82.20;;;;;;5093648;28;20512;-71
2023/07/09 11:48:20;;;;;;;3.08;2.40;;;27.70;82.00;;;;;;5093608;28;20028;-71
2023/07/09 11:50:49;;;;;;;4.35;2.67;;;27.70;82.70;;;;;;5093647;28;20028;-71
2023/07/09 11:53:43;;;;;;;2.92;2.38;;;27.70;86.10;;;;;;5093317;28;20572;-72
2023/07/09 11:56:09;;;;;;;3.50;2.45;;;27.70;83.30;;;;;;5093304;28;20122;-71
2023/07/09 11:58:34;;;;;;;5.03;2.28;;;27.70;82.80;;;;;;5093671;28;20028;-71
2023/07/09 12:01:03;;;;;;;4.40;2.67;;;27.60;83.40;;;;;;5093395;28;20483;-71
2023/07/09 12:03:36;;;;;;;2.80;2.42;;;27.60;83.90;;;;;;5093421;28;20107;-71
2023/07/09 12:06:24;;;;;;;4.30;2.58;;;27.70;83.40;;;;;;5093454;28;20026;-71
2023/07/09 12:08:52;;;;;;;3.75;2.40;;;27.60;86.50;;;;;;5082068;28;20040;-71
2023/07/09 12:11:23;;;;;;;5.70;2.72;;;27.60;83.30;;;;;;5093392;28;20027;-71
2023/07/09 12:13:49;;;;;;;9.10;2.70;;;27.60;83.00;;;;;;5093061;28;20438;-71
2023/07/09 12:16:21;;;;;;;5.32;3.50;;;27.60;86.70;;;;;;5093291;28;20032;-71
2023/07/09 12:18:46;;;;;;;7.65;3.13;;;27.60;87.00;;;;;;5092611;28;20020;-71
2023/07/09 12:21:12;;;;;;;5.78;2.95;;;27.50;87.20;;;;;;5093112;28;20024;-71
2023/07/09 12:23:40;;;;;;;4.60;2.17;;;27.50;86.20;;;;;;5092959;28;20028;-71
2023/07/09 12:26:10;;;;;;;5.38;2.63;;;27.50;83.80;;;;;;5093087;28;20092;-71
2023/07/09 12:28:36;;;;;;;4.18;1.92;;;27.50;84.70;;;;;;5093185;28;20017;-71
2023/07/09 12:31:02;;;;;;;3.47;2.30;;;27.50;84.00;;;;;;5093169;28;20025;-71
2023/07/09 12:33:28;;;;;;;3.70;2.40;;;27.40;82.60;;;;;;5093039;28;20016;-72
2023/07/09 12:35:59;;;;;;;3.60;2.05;;;27.40;83.60;;;;;;5093064;28;20021;-71
2023/07/09 12:38:28;;;;;;;5.40;2.67;;;27.40;84.10;;;;;;5092847;28;20389;-71
2023/07/09 12:40:55;;;;;;;5.05;2.95;;;27.50;86.60;;;;;;5093224;28;20032;-71
2023/07/09 12:43:27;;;;;;;5.00;2.25;;;27.40;87.70;;;;;;5093084;28;20020;-71
2023/07/09 12:45:53;;;;;;;;;;;27.50;88.20;;;;;;5093341;28;20107;-71
2023/07/09 12:48:23;;;;;;;4.50;2.53;;;27.40;88.50;;;;;;5091750;28;19946;-71
2023/07/09 12:50:50;;;;;;;3.78;2.42;;;27.40;88.20;;;;;;5092929;28;20024;-71